Brownville, Louisiana
Current Conditions -  °F | °C
As of 4:48 AM on Friday 28 Nov 2014 (Local Time) from KMLU Reporting Station
Haze Haze  
Wind Chill: 29°   Ceiling: Unl
Heat Index: 29°   Visibility: 3mi
Dew Point: 28°   Wind: 0mph
Humidity: 96%   Direction: NA
Pressure: 30.44"   Gusts: NA
Location:  32.1631°N, 92.1971°W
Report Text: KMLU 281048Z AUTO 00000KT 3SM BR CLR M02/M02 A3044 RMK AO2 SLP306 T10171022
Loading
Personal Weather Stations






























Interactive Weather Map New forecast layout! Learn more

10-Day Weather Forecast

Advertisements
Track Severe Weather on mobile